Time;durP1;ratioP1;P1;durP2;ratioP2;P2;SDS_P1;SDS_P2;PMS_P1;PMS_P2;Temp;Humidity;BMP_temperature;BMP_pressure;BME280_temperature;BME280_humidity;BME280_pressure;Samples;Min_cycle;Max_cycle;Signal;HPM_P1;HPM_P2
2022/10/12 00:00:24;;;;;;;19.00;12.50;;;9.00;99.90;;;;;;5032005;28;20405;-50
2022/10/12 00:02:51;;;;;;;21.77;13.00;;;9.00;99.90;;;;;;5032363;28;20811;-50
2022/10/12 00:05:17;;;;;;;27.03;13.60;;;8.30;99.90;;;;;;5036096;28;20477;-49
2022/10/12 00:07:44;;;;;;;20.90;13.43;;;8.80;99.90;;;;;;5036251;28;20896;-51
2022/10/12 00:10:10;;;;;;;22.67;13.03;;;8.90;99.90;;;;;;5035673;28;20425;-50
2022/10/12 00:12:37;;;;;;;17.77;12.60;;;9.30;99.90;;;;;;5036015;28;20493;-50
2022/10/12 00:15:05;;;;;;;26.60;11.87;;;8.90;99.90;;;;;;5035842;28;20462;-49
2022/10/12 00:17:33;;;;;;;23.53;12.50;;;8.60;99.90;;;;;;5035790;28;20486;-50
2022/10/12 00:19:59;;;;;;;27.50;13.67;;;8.70;99.90;;;;;;5035330;28;20442;-49
2022/10/12 00:22:26;;;;;;;18.37;13.63;;;9.20;99.90;;;;;;5035687;28;20409;-49
2022/10/12 00:24:53;;;;;;;22.40;13.00;;;8.20;99.90;;;;;;5035576;28;20453;-51
2022/10/12 00:27:20;;;;;;;25.90;14.30;;;8.70;99.90;;;;;;5035773;28;20427;-51
2022/10/12 00:29:46;;;;;;;21.87;12.80;;;9.20;99.90;;;;;;5017398;28;20448;-50
2022/10/12 00:32:14;;;;;;;26.00;13.10;;;8.60;99.90;;;;;;5018116;28;20491;-50
2022/10/12 00:34:41;;;;;;;17.50;12.70;;;8.30;99.90;;;;;;5035308;28;20903;-50
2022/10/12 00:37:08;;;;;;;21.43;11.80;;;8.60;99.90;;;;;;5035489;28;20475;-50
2022/10/12 00:39:35;;;;;;;25.67;13.80;;;8.60;99.90;;;;;;5035054;28;20432;-48
2022/10/12 00:42:01;;;;;;;21.00;12.33;;;8.40;99.90;;;;;;5035538;28;20442;-49
2022/10/12 00:44:41;;;;;;;21.93;13.20;;;8.50;99.90;;;;;;5035401;28;20885;-49
2022/10/12 00:47:15;;;;;;;21.63;13.33;;;8.80;99.90;;;;;;5035330;28;20844;-49
2022/10/12 00:49:45;;;;;;;20.60;13.50;;;8.50;99.90;;;;;;5034880;28;20927;-48
2022/10/12 00:52:13;;;;;;;24.67;13.87;;;8.40;99.90;;;;;;5035086;28;20439;-49
2022/10/12 00:54:43;;;;;;;23.97;13.00;;;8.70;99.90;;;;;;5035061;28;20451;-49
2022/10/12 00:57:12;;;;;;;19.90;12.87;;;8.40;99.90;;;;;;5034949;28;20517;-49
2022/10/12 00:59:45;;;;;;;28.30;15.97;;;8.50;99.90;;;;;;5034597;28;20435;-49
2022/10/12 01:02:12;;;;;;;23.47;14.60;;;8.50;99.90;;;;;;5035026;28;20431;-50
2022/10/12 01:04:40;;;;;;;23.63;13.20;;;8.50;99.90;;;;;;5034800;28;20462;-49
2022/10/12 01:07:08;;;;;;;24.60;15.20;;;8.50;99.90;;;;;;5035101;28;20438;-50
2022/10/12 01:09:34;;;;;;;21.07;13.20;;;7.90;99.90;;;;;;5034407;28;20410;-51
2022/10/12 01:12:05;;;;;;;23.97;14.23;;;8.40;99.90;;;;;;5034841;28;20442;-50
2022/10/12 01:14:32;;;;;;;22.87;12.80;;;8.50;99.90;;;;;;5034451;28;20538;-49
2022/10/12 01:17:03;;;;;;;23.10;12.83;;;8.30;99.90;;;;;;5034530;28;20475;-50
2022/10/12 01:19:51;;;;;;;22.93;13.20;;;8.60;99.90;;;;;;5034516;28;20939;-50
2022/10/12 01:22:20;;;;;;;23.60;13.60;;;8.30;99.90;;;;;;5034547;28;20422;-50
2022/10/12 01:24:52;;;;;;;24.50;13.97;;;8.30;99.90;;;;;;5034629;28;20447;-50
2022/10/12 01:27:49;;;;;;;25.03;13.77;;;8.20;99.90;;;;;;5034535;28;20485;-50
2022/10/12 01:30:21;;;;;;;22.53;12.70;;;8.30;99.90;;;;;;5027582;28;20463;-50
2022/10/12 01:33:11;;;;;;;23.13;13.57;;;8.30;99.90;;;;;;5034440;28;20435;-50
2022/10/12 01:35:45;;;;;;;23.17;13.27;;;8.50;99.90;;;;;;5034096;28;20470;-50
2022/10/12 01:38:20;;;;;;;20.63;13.50;;;8.50;99.90;;;;;;5034201;28;20481;-50
2022/10/12 01:40:54;;;;;;;21.63;13.43;;;8.50;99.90;;;;;;5033949;28;20442;-49
2022/10/12 01:43:22;;;;;;;23.07;14.00;;;8.10;99.90;;;;;;5034038;28;20442;-49
2022/10/12 01:45:50;;;;;;;26.20;14.30;;;8.20;99.90;;;;;;5033992;28;20529;-50
2022/10/12 01:48:17;;;;;;;19.80;12.87;;;7.70;99.90;;;;;;5033884;28;20533;-51
2022/10/12 01:50:49;;;;;;;23.57;14.53;;;8.10;99.90;;;;;;5033841;28;20434;-49
2022/10/12 01:53:26;;;;;;;26.17;13.73;;;8.10;99.90;;;;;;5034008;28;20440;-50
2022/10/12 01:55:58;;;;;;;29.60;14.40;;;8.40;99.90;;;;;;5034188;28;20537;-49
2022/10/12 01:58:51;;;;;;;21.77;12.70;;;8.20;99.90;;;;;;5034069;28;20543;-49
2022/10/12 02:01:27;;;;;;;18.70;11.87;;;8.20;99.90;;;;;;5016061;28;20454;-50
2022/10/12 02:04:00;;;;;;;20.73;12.00;;;8.60;99.90;;;;;;5033774;28;20472;-49
2022/10/12 02:06:34;;;;;;;32.07;14.57;;;8.30;99.90;;;;;;5033699;28;20447;-49
2022/10/12 02:09:06;;;;;;;22.13;12.97;;;8.10;99.90;;;;;;5033169;28;20435;-49
2022/10/12 02:11:35;;;;;;;19.93;14.13;;;8.10;99.90;;;;;;5033666;28;20457;-49
2022/10/12 02:14:07;;;;;;;23.77;13.00;;;8.30;99.90;;;;;;5033487;28;20429;-48
2022/10/12 02:16:39;;;;;;;23.83;13.87;;;7.90;99.90;;;;;;5033521;28;20484;-49
2022/10/12 02:19:10;;;;;;;20.80;12.90;;;8.00;99.90;;;;;;5033335;28;20805;-49
2022/10/12 02:21:38;;;;;;;23.97;13.37;;;8.30;99.90;;;;;;5033642;28;20427;-50
2022/10/12 02:24:07;;;;;;;20.60;12.43;;;8.20;99.90;;;;;;5033198;28;21004;-49
2022/10/12 02:26:36;;;;;;;20.57;12.60;;;8.30;99.90;;;;;;5032791;28;20449;-50
2022/10/12 02:29:06;;;;;;;18.77;13.60;;;8.00;99.90;;;;;;5032839;28;20417;-49
2022/10/12 02:31:41;;;;;;;21.50;12.70;;;8.20;99.90;;;;;;5033140;28;20454;-49
2022/10/12 02:34:11;;;;;;;22.80;14.37;;;8.00;99.90;;;;;;5032961;28;20903;-50
2022/10/12 02:36:43;;;;;;;24.57;13.20;;;7.90;99.90;;;;;;5033062;28;20442;-49
2022/10/12 02:39:14;;;;;;;24.57;13.53;;;8.10;99.90;;;;;;5032785;28;20439;-49
2022/10/12 02:41:45;;;;;;;19.97;13.57;;;8.10;99.90;;;;;;5033062;28;20436;-50
2022/10/12 02:44:15;;;;;;;22.60;13.07;;;8.00;99.90;;;;;;5032908;28;20879;-50
2022/10/12 02:46:45;;;;;;;22.03;13.20;;;7.70;99.90;;;;;;5032879;28;20443;-51
2022/10/12 02:49:14;;;;;;;21.73;14.60;;;8.00;99.90;;;;;;5032600;28;20443;-50
2022/10/12 02:51:42;;;;;;;20.10;12.53;;;7.70;99.90;;;;;;5032927;28;20439;-50
2022/10/12 02:54:08;;;;;;;21.13;15.00;;;7.90;99.90;;;;;;5032772;28;20450;-50
2022/10/12 02:56:41;;;;;;;17.93;12.70;;;7.90;99.90;;;;;;5032296;28;20410;-50
2022/10/12 02:59:08;;;;;;;20.40;13.00;;;7.70;99.90;;;;;;5032324;28;20437;-50
2022/10/12 03:01:34;;;;;;;20.43;13.97;;;7.70;99.90;;;;;;5032604;28;20458;-49
2022/10/12 03:04:02;;;;;;;21.00;13.43;;;8.30;99.90;;;;;;5032573;28;20984;-49
2022/10/12 03:06:29;;;;;;;23.70;12.80;;;7.80;99.90;;;;;;5032648;28;20435;-51
2022/10/12 03:08:56;;;;;;;20.03;13.30;;;7.90;99.90;;;;;;5032263;28;20509;-50
2022/10/12 03:11:23;;;;;;;22.80;13.27;;;7.50;99.90;;;;;;5032442;28;20963;-50
2022/10/12 03:13:52;;;;;;;24.10;12.47;;;8.00;99.90;;;;;;5014573;28;20461;-49
2022/10/12 03:16:18;;;;;;;24.80;13.87;;;7.90;99.90;;;;;;5032411;28;20458;-49
2022/10/12 03:18:45;;;;;;;22.83;13.37;;;7.80;99.90;;;;;;5031819;28;20490;-50
2022/10/12 03:21:13;;;;;;;20.80;13.60;;;7.90;99.90;;;;;;5032444;28;20412;-49
2022/10/12 03:23:40;;;;;;;24.33;13.33;;;7.70;99.90;;;;;;5032295;28;20431;-50
2022/10/12 03:26:07;;;;;;;21.90;12.20;;;7.40;99.90;;;;;;5032160;28;20412;-50
2022/10/12 03:28:34;;;;;;;22.30;13.30;;;7.70;99.90;;;;;;5031936;28;20558;-50
2022/10/12 03:31:01;;;;;;;25.77;13.10;;;7.70;99.90;;;;;;5032271;28;20431;-49
2022/10/12 03:33:28;;;;;;;24.03;13.77;;;7.00;99.90;;;;;;5032108;28;20823;-49
2022/10/12 03:35:54;;;;;;;25.07;12.63;;;7.60;99.90;;;;;;5032101;28;20836;-50
2022/10/12 03:38:22;;;;;;;21.10;13.93;;;7.80;99.90;;;;;;5031403;28;20449;-50
2022/10/12 03:40:49;;;;;;;17.97;12.60;;;7.70;99.90;;;;;;5032063;28;20434;-50
2022/10/12 03:43:16;;;;;;;24.60;13.93;;;7.40;99.90;;;;;;5014332;28;20967;-49
2022/10/12 03:45:42;;;;;;;26.10;15.23;;;7.70;99.90;;;;;;5031795;28;20452;-49
2022/10/12 03:48:09;;;;;;;24.23;12.40;;;7.90;99.90;;;;;;5031903;28;20969;-49
2022/10/12 03:50:36;;;;;;;20.70;14.27;;;7.70;99.90;;;;;;5031851;28;20433;-50
2022/10/12 03:53:03;;;;;;;23.33;14.70;;;8.10;99.90;;;;;;5031989;28;20438;-50
2022/10/12 03:55:31;;;;;;;22.20;14.27;;;7.70;99.90;;;;;;5031701;28;20997;-50
2022/10/12 03:57:58;;;;;;;25.70;14.27;;;7.00;99.90;;;;;;5013975;28;20481;-50
2022/10/12 04:00:26;;;;;;;22.60;13.10;;;7.80;99.90;;;;;;5031574;28;20445;-49
2022/10/12 04:02:53;;;;;;;19.83;14.07;;;7.80;99.90;;;;;;5031894;28;20457;-49
2022/10/12 04:05:20;;;;;;;21.73;13.00;;;7.80;99.90;;;;;;5031638;28;20459;-50
2022/10/12 04:07:47;;;;;;;21.93;14.80;;;7.40;99.90;;;;;;5031756;28;20888;-50
2022/10/12 04:10:13;;;;;;;22.63;15.17;;;7.60;99.90;;;;;;5031818;28;20932;-50
2022/10/12 04:12:41;;;;;;;22.50;13.70;;;7.60;99.90;;;;;;5031917;28;20414;-50
2022/10/12 04:15:09;;;;;;;27.67;15.60;;;7.70;99.90;;;;;;5031898;28;20980;-49
2022/10/12 04:17:35;;;;;;;28.43;13.43;;;7.70;99.90;;;;;;5031801;28;20510;-50
2022/10/12 04:20:02;;;;;;;21.87;12.70;;;8.00;99.90;;;;;;5031212;28;20476;-50
2022/10/12 04:22:29;;;;;;;23.30;13.90;;;7.70;99.90;;;;;;5031744;28;20433;-50
2022/10/12 04:24:55;;;;;;;20.20;14.57;;;7.50;99.90;;;;;;5013994;28;20468;-49
2022/10/12 04:27:22;;;;;;;22.63;16.30;;;7.50;99.90;;;;;;5031513;28;20434;-50
2022/10/12 04:29:50;;;;;;;30.00;14.10;;;7.40;99.90;;;;;;5031324;28;20430;-50
2022/10/12 04:32:17;;;;;;;25.93;15.40;;;7.50;99.90;;;;;;5031760;28;20437;-51
2022/10/12 04:34:44;;;;;;;24.20;14.67;;;7.40;99.90;;;;;;5054532;22;20508;-49
2022/10/12 04:37:10;;;;;;;25.97;15.27;;;7.60;99.90;;;;;;5030906;28;20791;-50
2022/10/12 04:39:37;;;;;;;22.50;14.50;;;7.50;99.90;;;;;;5030398;28;20445;-49
2022/10/12 04:42:05;;;;;;;23.40;14.53;;;7.60;99.90;;;;;;5030713;28;20438;-50
2022/10/12 04:44:32;;;;;;;22.20;14.67;;;7.30;99.90;;;;;;5030983;28;20466;-49
2022/10/12 04:47:00;;;;;;;22.53;13.90;;;7.10;99.90;;;;;;5030847;28;21075;-50
2022/10/12 04:49:26;;;;;;;23.20;14.00;;;7.70;99.90;;;;;;5031592;28;20438;-51
2022/10/12 04:51:53;;;;;;;19.93;14.77;;;7.40;99.90;;;;;;5034442;28;20455;-49
2022/10/12 04:54:20;;;;;;;26.00;15.80;;;7.50;99.90;;;;;;5034371;28;20798;-50
2022/10/12 04:56:46;;;;;;;21.83;15.43;;;6.80;99.90;;;;;;5016850;28;20489;-50
2022/10/12 04:59:13;;;;;;;25.37;14.23;;;7.40;99.90;;;;;;5033869;28;20460;-51
2022/10/12 05:01:40;;;;;;;28.67;15.00;;;7.20;99.90;;;;;;5034160;28;20400;-50
2022/10/12 05:04:07;;;;;;;23.00;14.80;;;7.70;99.90;;;;;;5034375;28;20412;-50
2022/10/12 05:06:34;;;;;;;24.93;14.57;;;7.50;99.90;;;;;;5017703;28;20442;-50
2022/10/12 05:09:01;;;;;;;23.90;15.50;;;7.50;99.90;;;;;;5033916;28;20435;-51
2022/10/12 05:11:27;;;;;;;25.10;13.80;;;7.40;99.90;;;;;;5033998;28;20589;-50
2022/10/12 05:13:54;;;;;;;22.47;13.33;;;7.10;99.90;;;;;;5033853;28;20434;-49
2022/10/12 05:16:21;;;;;;;25.40;15.13;;;7.40;99.90;;;;;;5034510;28;20909;-50
2022/10/12 05:18:47;;;;;;;27.47;15.40;;;7.30;99.90;;;;;;5033746;28;20474;-50
2022/10/12 05:21:15;;;;;;;26.47;14.90;;;7.00;99.90;;;;;;5033927;28;20434;-50
2022/10/12 05:23:42;;;;;;;23.60;14.90;;;7.50;99.90;;;;;;5033765;28;20438;-47
2022/10/12 05:26:08;;;;;;;31.13;14.43;;;7.40;99.90;;;;;;5033621;28;20425;-50
2022/10/12 05:28:35;;;;;;;25.60;15.47;;;7.50;99.90;;;;;;5033089;28;20438;-50
2022/10/12 05:31:02;;;;;;;26.67;15.37;;;7.30;99.90;;;;;;5033063;28;20934;-50
2022/10/12 05:33:28;;;;;;;22.70;14.47;;;7.50;99.90;;;;;;5033592;28;20441;-49
2022/10/12 05:35:55;;;;;;;20.97;13.43;;;7.40;99.90;;;;;;5033152;28;20509;-51
2022/10/12 05:38:23;;;;;;;28.83;13.83;;;7.30;99.90;;;;;;5033691;28;20496;-49
2022/10/12 05:40:50;;;;;;;27.43;15.07;;;7.50;99.90;;;;;;5033490;28;20446;-52
2022/10/12 05:43:17;;;;;;;24.23;15.10;;;7.60;99.90;;;;;;5032831;28;20465;-49
2022/10/12 05:45:43;;;;;;;28.30;16.47;;;7.60;99.90;;;;;;5032815;28;20945;-50
2022/10/12 05:48:10;;;;;;;30.13;16.33;;;7.40;99.90;;;;;;5032636;28;20421;-50
2022/10/12 05:50:36;;;;;;;34.87;17.83;;;7.20;99.90;;;;;;5014259;28;20458;-50
2022/10/12 05:53:04;;;;;;;29.00;16.47;;;7.70;99.90;;;;;;5033989;28;20419;-50
2022/10/12 05:55:32;;;;;;;33.83;19.10;;;7.50;99.90;;;;;;5033755;28;20792;-51
2022/10/12 05:57:58;;;;;;;28.73;17.60;;;7.70;99.90;;;;;;5033335;28;20546;-49
2022/10/12 06:00:25;;;;;;;36.03;17.20;;;7.70;99.90;;;;;;5033102;28;20426;-49
2022/10/12 06:02:51;;;;;;;25.50;15.67;;;7.50;99.90;;;;;;5032789;28;20922;-49
2022/10/12 06:05:18;;;;;;;40.17;17.40;;;7.70;99.90;;;;;;5033130;28;20512;-50
2022/10/12 06:07:45;;;;;;;23.83;15.37;;;7.10;99.90;;;;;;5032765;28;20426;-52
2022/10/12 06:10:11;;;;;;;31.20;15.27;;;7.30;99.90;;;;;;5032548;28;20441;-50
2022/10/12 06:12:39;;;;;;;24.43;14.50;;;8.00;99.90;;;;;;5014773;28;20871;-50
2022/10/12 06:15:07;;;;;;;24.63;13.67;;;7.90;99.90;;;;;;5032884;28;20455;-50
2022/10/12 06:17:34;;;;;;;22.60;14.10;;;7.70;99.90;;;;;;5033156;28;20445;-49
2022/10/12 06:20:00;;;;;;;23.13;14.57;;;7.90;99.90;;;;;;5032577;28;21022;-50
2022/10/12 06:22:27;;;;;;;19.13;13.90;;;8.30;99.90;;;;;;5033211;28;20440;-51
2022/10/12 06:24:54;;;;;;;23.33;14.60;;;8.20;99.90;;;;;;5033181;28;20458;-49
2022/10/12 06:27:20;;;;;;;24.70;12.77;;;8.20;99.90;;;;;;5032498;28;20904;-51
2022/10/12 06:29:48;;;;;;;22.13;13.97;;;7.90;99.90;;;;;;5031940;28;20429;-51
2022/10/12 06:32:15;;;;;;;24.67;13.17;;;8.10;99.90;;;;;;5031768;28;20431;-51
2022/10/12 06:34:41;;;;;;;24.83;11.87;;;8.20;99.90;;;;;;5031945;28;20490;-50
2022/10/12 06:37:08;;;;;;;25.30;12.60;;;8.50;99.90;;;;;;5031666;28;20443;-50
2022/10/12 06:39:35;;;;;;;27.37;12.87;;;8.30;99.90;;;;;;5031458;28;20995;-50
2022/10/12 06:42:01;;;;;;;31.07;13.73;;;8.40;99.90;;;;;;5014127;28;20967;-50
2022/10/12 06:44:28;;;;;;;16.77;10.83;;;8.70;99.90;;;;;;5031584;28;20458;-50
2022/10/12 06:46:56;;;;;;;25.80;12.20;;;8.50;99.90;;;;;;5014771;28;20967;-50
2022/10/12 06:49:23;;;;;;;24.70;11.90;;;8.40;99.90;;;;;;5032454;28;20755;-52
2022/10/12 06:51:49;;;;;;;23.23;11.37;;;8.40;99.90;;;;;;5031411;28;20467;-50
2022/10/12 06:54:16;;;;;;;15.30;10.40;;;8.60;99.90;;;;;;5031627;28;20442;-50
2022/10/12 06:56:43;;;;;;;23.53;11.60;;;8.70;99.90;;;;;;5031800;28;20498;-51
2022/10/12 06:59:12;;;;;;;15.23;10.03;;;8.70;99.90;;;;;;5031123;28;20794;-49
2022/10/12 07:01:39;;;;;;;17.73;10.70;;;8.90;99.90;;;;;;5031994;28;20944;-50
2022/10/12 07:04:07;;;;;;;21.13;10.97;;;8.80;99.90;;;;;;5031595;28;20435;-50
2022/10/12 07:06:33;;;;;;;18.77;11.27;;;8.90;99.90;;;;;;5032268;28;20439;-50
2022/10/12 07:09:00;;;;;;;17.70;10.60;;;8.70;99.90;;;;;;5031474;28;20701;-50
2022/10/12 07:11:27;;;;;;;18.70;10.53;;;8.70;99.90;;;;;;5031388;28;20846;-51
2022/10/12 07:13:54;;;;;;;16.03;10.53;;;9.30;99.90;;;;;;5031599;28;20447;-51
2022/10/12 07:16:21;;;;;;;15.03;10.20;;;8.90;99.90;;;;;;5031497;28;20932;-50
2022/10/12 07:18:47;;;;;;;22.70;11.50;;;9.20;99.90;;;;;;5030595;28;20574;-50
2022/10/12 07:21:15;;;;;;;24.87;12.27;;;9.50;99.90;;;;;;5031082;28;20976;-51
2022/10/12 07:23:42;;;;;;;24.10;13.73;;;9.30;99.90;;;;;;5031273;28;20421;-50
2022/10/12 07:26:09;;;;;;;26.53;13.00;;;9.10;99.90;;;;;;5031399;28;20467;-51
2022/10/12 07:28:36;;;;;;;21.73;12.23;;;9.10;99.90;;;;;;5030827;28;20418;-51
2022/10/12 07:31:04;;;;;;;24.43;12.90;;;9.40;99.90;;;;;;5031207;28;20431;-50
2022/10/12 07:33:32;;;;;;;18.83;11.70;;;9.30;99.90;;;;;;5031169;28;20518;-51
2022/10/12 07:36:00;;;;;;;30.23;12.40;;;9.40;99.90;;;;;;5030935;28;20471;-50
2022/10/12 07:38:28;;;;;;;23.40;11.33;;;9.40;99.90;;;;;;5030820;28;20446;-50
2022/10/12 07:40:57;;;;;;;21.27;12.37;;;9.40;99.90;;;;;;5031395;28;20439;-50
2022/10/12 07:43:24;;;;;;;17.93;10.87;;;9.70;99.90;;;;;;5031013;28;20444;-51
2022/10/12 07:45:51;;;;;;;25.67;11.70;;;9.60;99.90;;;;;;5030691;28;20447;-50
2022/10/12 07:48:17;;;;;;;24.30;11.17;;;9.70;99.90;;;;;;5030688;28;20458;-50
2022/10/12 07:50:44;;;;;;;27.80;9.70;;;9.60;99.90;;;;;;5030855;28;20460;-50
2022/10/12 07:53:10;;;;;;;18.30;9.90;;;9.80;99.90;;;;;;5030930;28;20439;-50
2022/10/12 07:55:38;;;;;;;23.00;11.57;;;9.90;99.90;;;;;;5012859;28;20471;-51
2022/10/12 07:58:05;;;;;;;28.73;14.97;;;9.90;99.90;;;;;;5031014;28;20439;-52
2022/10/12 08:00:32;;;;;;;33.70;18.13;;;10.50;99.90;;;;;;5030848;28;20483;-50
2022/10/12 08:02:59;;;;;;;25.00;13.40;;;9.40;99.90;;;;;;5030627;28;20450;-50
2022/10/12 08:05:26;;;;;;;21.97;14.63;;;10.60;99.90;;;;;;5030873;28;20553;-49
2022/10/12 08:07:53;;;;;;;38.83;18.23;;;10.10;99.90;;;;;;5031069;28;20519;-51
2022/10/12 08:10:20;;;;;;;29.17;17.67;;;10.10;99.90;;;;;;5030647;28;20439;-50
2022/10/12 08:12:48;;;;;;;36.70;19.27;;;10.20;99.90;;;;;;5030864;28;20431;-50
2022/10/12 08:15:15;;;;;;;24.07;14.10;;;10.30;99.90;;;;;;5030948;28;20460;-50
2022/10/12 08:17:42;;;;;;;27.40;11.30;;;10.50;99.90;;;;;;5030642;28;20435;-50
2022/10/12 08:20:09;;;;;;;14.63;9.10;;;10.20;99.90;;;;;;5029892;28;20468;-50
2022/10/12 08:22:36;;;;;;;16.70;6.90;;;10.60;99.90;;;;;;5031091;28;20808;-51
2022/10/12 08:25:02;;;;;;;22.13;8.30;;;10.80;99.90;;;;;;5032991;28;20482;-51
2022/10/12 08:27:30;;;;;;;24.03;8.90;;;11.00;99.90;;;;;;5034812;28;20432;-50
2022/10/12 08:29:58;;;;;;;18.00;8.77;;;10.70;99.90;;;;;;5034235;28;20462;-51
2022/10/12 08:32:25;;;;;;;23.30;11.77;;;10.40;99.90;;;;;;5034638;28;20435;-50
2022/10/12 08:34:52;;;;;;;28.47;12.27;;;10.90;99.90;;;;;;5034312;28;20537;-50
2022/10/12 08:37:18;;;;;;;22.60;8.70;;;10.60;99.90;;;;;;5035139;28;20974;-48
2022/10/12 08:39:45;;;;;;;30.70;13.73;;;10.80;99.90;;;;;;5034094;28;20529;-50
2022/10/12 08:42:23;;;;;;;22.93;13.30;;;11.20;99.90;;;;;;5034552;28;20441;-51
2022/10/12 08:45:13;;;;;;;26.33;14.57;;;11.10;99.90;;;;;;5034115;28;20963;-50
2022/10/12 08:47:42;;;;;;;26.70;13.53;;;11.00;99.90;;;;;;5034445;28;20435;-49
2022/10/12 08:50:15;;;;;;;16.20;10.00;;;10.40;99.90;;;;;;5034126;28;20561;-49
2022/10/12 08:52:52;;;;;;;21.87;8.50;;;11.00;99.90;;;;;;5034608;28;20435;-50
2022/10/12 08:55:25;;;;;;;27.40;14.57;;;11.40;99.90;;;;;;5033284;28;20456;-50
2022/10/12 08:57:52;;;;;;;14.73;6.43;;;11.40;99.90;;;;;;5034853;28;20468;-50
2022/10/12 09:00:21;;;;;;;27.90;12.70;;;11.40;99.90;;;;;;5033766;28;20483;-50
2022/10/12 09:03:01;;;;;;;19.17;8.23;;;11.70;99.90;;;;;;5034222;28;20439;-49
2022/10/12 09:05:33;;;;;;;23.80;9.20;;;11.40;99.90;;;;;;5034065;28;20996;-48
2022/10/12 09:08:05;;;;;;;15.77;10.47;;;11.30;99.90;;;;;;5034492;28;20908;-49
2022/10/12 09:10:43;;;;;;;19.20;8.13;;;11.40;99.90;;;;;;5034767;28;20435;-49
2022/10/12 09:13:20;;;;;;;15.40;8.20;;;11.40;99.90;;;;;;5034344;28;20471;-50
2022/10/12 09:15:52;;;;;;;23.43;7.27;;;12.00;99.90;;;;;;5015920;28;20461;-51
2022/10/12 09:18:23;;;;;;;18.70;6.63;;;11.60;99.90;;;;;;5034277;28;20448;-49
2022/10/12 09:20:51;;;;;;;19.67;8.40;;;11.80;99.90;;;;;;5033959;28;20779;-49
2022/10/12 09:23:24;;;;;;;14.23;5.97;;;11.70;99.90;;;;;;5033676;28;20437;-50
2022/10/12 09:25:51;;;;;;;12.10;5.83;;;11.80;99.90;;;;;;5034099;28;20647;-49
2022/10/12 09:28:23;;;;;;;30.10;9.20;;;11.70;99.90;;;;;;5034122;28;20576;-49
2022/10/12 09:31:04;;;;;;;12.53;4.73;;;11.50;99.90;;;;;;5033514;28;20433;-50
2022/10/12 09:33:36;;;;;;;13.25;5.47;;;11.40;99.90;;;;;;5032556;28;20433;-51
2022/10/12 09:36:03;;;;;;;13.20;4.97;;;12.40;99.90;;;;;;5032166;28;20223;-51
2022/10/12 09:38:30;;;;;;;19.17;5.80;;;12.30;99.90;;;;;;5033568;28;20442;-49
2022/10/12 09:40:56;;;;;;;15.33;5.80;;;12.40;99.90;;;;;;5033389;28;20516;-49
2022/10/12 09:43:23;;;;;;;12.80;5.30;;;12.20;99.90;;;;;;5014863;28;20923;-51
2022/10/12 09:45:52;;;;;;;14.43;4.70;;;12.10;99.90;;;;;;5032861;28;20467;-49
2022/10/12 09:48:20;;;;;;;13.90;5.67;;;12.60;99.90;;;;;;5015162;28;20514;-50
2022/10/12 09:50:53;;;;;;;7.50;3.97;;;12.20;99.90;;;;;;5032531;28;20431;-51
2022/10/12 09:53:27;;;;;;;11.70;4.20;;;12.30;99.90;;;;;;5033021;28;20427;-50
2022/10/12 09:55:56;;;;;;;9.30;3.40;;;12.30;99.90;;;;;;5033142;28;20528;-49
2022/10/12 09:58:24;;;;;;;9.47;3.60;;;12.50;99.90;;;;;;5032635;28;20889;-51
2022/10/12 10:01:20;;;;;;;9.60;3.50;;;12.70;99.90;;;;;;5032797;28;20580;-50
2022/10/12 10:03:48;;;;;;;11.30;3.73;;;12.40;99.90;;;;;;5033048;28;20460;-50
2022/10/12 10:06:22;;;;;;;9.63;2.80;;;12.40;99.90;;;;;;5032832;28;20502;-51
2022/10/12 10:08:48;;;;;;;16.43;4.10;;;12.60;99.90;;;;;;5032325;28;20472;-51
2022/10/12 10:11:18;;;;;;;9.63;4.90;;;13.00;99.90;;;;;;5032725;28;20433;-50
2022/10/12 10:13:49;;;;;;;9.87;2.73;;;12.80;99.90;;;;;;5014984;28;20462;-50
2022/10/12 10:16:18;;;;;;;8.90;3.40;;;12.70;99.90;;;;;;5037865;28;20480;-50
2022/10/12 10:18:47;;;;;;;21.70;4.77;;;12.60;99.90;;;;;;5037685;28;20467;-50
2022/10/12 10:21:23;;;;;;;13.40;4.63;;;12.60;99.90;;;;;;5052031;28;20569;-49
2022/10/12 10:23:51;;;;;;;12.73;3.97;;;12.90;99.90;;;;;;5040237;28;20417;-49
2022/10/12 10:26:20;;;;;;;15.23;4.17;;;12.80;99.90;;;;;;5031503;28;20784;-50
2022/10/12 10:28:49;;;;;;;15.33;4.40;;;12.60;99.90;;;;;;5031345;28;20928;-50
2022/10/12 10:31:21;;;;;;;14.53;3.30;;;13.00;99.90;;;;;;5035054;28;20471;-51
2022/10/12 10:34:11;;;;;;;9.77;3.20;;;12.90;99.90;;;;;;5040307;28;20856;-53
2022/10/12 10:36:40;;;;;;;9.03;3.40;;;12.90;99.90;;;;;;5032196;28;20427;-51
2022/10/12 10:39:17;;;;;;;15.80;6.03;;;12.90;99.90;;;;;;5031845;28;20442;-50
2022/10/12 10:41:44;;;;;;;8.07;4.20;;;13.00;99.90;;;;;;5045266;23;20507;-50
2022/10/12 10:44:27;;;;;;;11.83;3.50;;;13.20;99.90;;;;;;5032467;28;20441;-51
2022/10/12 10:46:59;;;;;;;12.47;3.73;;;13.00;99.90;;;;;;5030348;28;20452;-49
2022/10/12 10:49:35;;;;;;;8.47;2.93;;;13.00;99.90;;;;;;5030612;28;20449;-50
2022/10/12 10:52:02;;;;;;;9.63;4.97;;;13.10;99.90;;;;;;5016054;28;20476;-49
2022/10/12 10:54:31;;;;;;;13.33;4.37;;;13.10;99.90;;;;;;5012687;28;20445;-50
2022/10/12 10:57:02;;;;;;;10.13;3.60;;;13.30;99.90;;;;;;5016065;28;20445;-50
2022/10/12 10:59:45;;;;;;;17.30;3.77;;;13.10;99.90;;;;;;5019427;28;20479;-50
2022/10/12 11:02:19;;;;;;;10.67;4.80;;;13.50;99.90;;;;;;5012624;28;20837;-52
2022/10/12 11:04:49;;;;;;;27.27;8.50;;;13.60;99.90;;;;;;5012517;28;20444;-52
2022/10/12 11:07:21;;;;;;;12.93;5.10;;;13.40;99.90;;;;;;5012234;28;20505;-50
2022/10/12 11:09:53;;;;;;;9.47;3.00;;;13.30;99.90;;;;;;5012011;28;20539;-51
2022/10/12 11:12:25;;;;;;;7.87;2.83;;;13.30;99.90;;;;;;5012369;28;20455;-51
2022/10/12 11:14:53;;;;;;;10.17;4.60;;;13.20;99.90;;;;;;5012341;28;20447;-50
2022/10/12 11:17:26;;;;;;;17.60;5.30;;;13.40;99.90;;;;;;5010219;28;20541;-52
2022/10/12 11:20:01;;;;;;;11.93;3.60;;;13.60;99.90;;;;;;5011442;28;20479;-52
2022/10/12 11:22:32;;;;;;;9.80;4.90;;;13.80;99.90;;;;;;5008094;28;20560;-51
2022/10/12 11:25:07;;;;;;;9.93;5.23;;;13.40;99.90;;;;;;5010478;28;20458;-52
2022/10/12 11:27:37;;;;;;;13.90;4.43;;;13.60;99.90;;;;;;5011933;28;20457;-50
2022/10/12 11:30:12;;;;;;;13.77;5.25;;;13.80;99.90;;;;;;5010296;28;20426;-50
2022/10/12 11:32:43;;;;;;;11.07;4.10;;;14.10;99.30;;;;;;4999502;28;20286;-50
2022/10/12 11:35:15;;;;;;;15.20;7.20;;;14.30;99.10;;;;;;5011783;28;20441;-51
2022/10/12 11:37:48;;;;;;;11.07;5.57;;;13.90;98.90;;;;;;5010617;28;20534;-50
2022/10/12 11:40:19;;;;;;;12.83;4.13;;;14.20;99.10;;;;;;5011196;28;20493;-50
2022/10/12 11:42:48;;;;;;;12.47;3.60;;;13.80;98.60;;;;;;5011853;28;20475;-50
2022/10/12 11:45:22;;;;;;;8.57;2.57;;;13.90;98.60;;;;;;5011704;28;20459;-51
2022/10/12 11:47:54;;;;;;;8.20;4.63;;;13.90;98.80;;;;;;5011912;28;20535;-52
2022/10/12 11:50:30;;;;;;;12.80;4.43;;;13.80;98.50;;;;;;5011495;28;20447;-51
2022/10/12 11:53:00;;;;;;;8.27;2.80;;;13.90;98.40;;;;;;5009941;28;20987;-52
2022/10/12 11:55:38;;;;;;;9.48;2.70;;;14.40;98.40;;;;;;5010293;28;20463;-50
2022/10/12 11:58:10;;;;;;;10.20;5.20;;;14.40;97.50;;;;;;5011538;28;20205;-50
2022/10/12 12:00:44;;;;;;;14.10;8.90;;;14.70;97.60;;;;;;5014177;28;20483;-50
2022/10/12 12:03:18;;;;;;;12.17;4.07;;;14.30;97.60;;;;;;5015543;28;20450;-50
2022/10/12 12:05:44;;;;;;;14.83;4.37;;;14.40;97.60;;;;;;5015353;28;20450;-50
2022/10/12 12:08:21;;;;;;;15.00;3.50;;;14.40;97.70;;;;;;5015802;28;20429;-51
2022/10/12 12:11:04;;;;;;;12.93;5.07;;;14.30;97.20;;;;;;5015413;28;20460;-50
2022/10/12 12:13:32;;;;;;;10.17;4.27;;;14.40;97.10;;;;;;5015423;28;20428;-50
2022/10/12 12:16:33;;;;;;;13.73;5.23;;;14.40;97.10;;;;;;5015279;28;20444;-50
2022/10/12 12:19:35;;;;;;;13.80;4.27;;;14.50;96.40;;;;;;5015306;28;20438;-50
2022/10/12 12:22:16;;;;;;;11.93;4.50;;;14.50;96.10;;;;;;4974836;28;20497;-49
2022/10/12 12:24:54;;;;;;;9.13;3.17;;;14.50;96.40;;;;;;4995931;28;20444;-51
2022/10/12 12:27:23;;;;;;;13.27;7.87;;;14.60;96.70;;;;;;4999654;28;20464;-52
2022/10/12 12:29:52;;;;;;;37.23;24.63;;;14.60;96.70;;;;;;5014989;28;20442;-51
2022/10/12 12:32:19;;;;;;;12.50;5.23;;;14.50;96.50;;;;;;5015220;28;20463;-50
2022/10/12 12:34:54;;;;;;;13.80;4.60;;;14.60;96.20;;;;;;5015365;28;20451;-51
2022/10/12 12:37:24;;;;;;;10.10;2.97;;;14.60;96.30;;;;;;5015068;28;20431;-51
2022/10/12 12:39:53;;;;;;;6.80;2.70;;;14.40;95.90;;;;;;5014411;28;20436;-50
2022/10/12 12:42:23;;;;;;;8.13;2.93;;;14.60;95.70;;;;;;5015003;28;20467;-50
2022/10/12 12:44:50;;;;;;;10.50;4.17;;;14.80;95.90;;;;;;5014747;28;20441;-50
2022/10/12 12:47:36;;;;;;;14.93;4.20;;;14.10;95.60;;;;;;5015227;28;20453;-49
2022/10/12 12:50:31;;;;;;;6.30;2.20;;;14.20;95.40;;;;;;5012927;28;21176;-50